createdAt,value
2023-04-25T00:00:00.607Z,15.25
2023-04-25T00:02:29.326Z,15.32
2023-04-25T00:04:59.466Z,15.29
2023-04-25T00:07:27.528Z,15.31
2023-04-25T00:09:55.768Z,15.28
2023-04-25T00:12:24.049Z,15.29
2023-04-25T00:14:52.485Z,15.30
2023-04-25T00:17:20.437Z,15.28
2023-04-25T00:19:48.540Z,15.30
2023-04-25T00:22:15.582Z,15.26
2023-04-25T00:24:43.800Z,15.26
2023-04-25T00:27:11.908Z,15.25
2023-04-25T00:29:39.896Z,15.23
2023-04-25T00:32:07.782Z,15.18
2023-04-25T00:34:35.788Z,15.20
2023-04-25T00:37:03.918Z,15.20
2023-04-25T00:39:31.515Z,15.18
2023-04-25T00:41:59.850Z,15.20
2023-04-25T00:44:27.865Z,15.23
2023-04-25T00:46:55.532Z,15.20
2023-04-25T00:49:23.326Z,15.16
2023-04-25T00:51:51.236Z,15.17
2023-04-25T00:54:19.237Z,15.19
2023-04-25T00:56:46.916Z,15.15
2023-04-25T00:59:14.009Z,15.18
2023-04-25T01:01:41.328Z,15.16
2023-04-25T01:04:09.092Z,15.18
2023-04-25T01:06:36.703Z,15.21
2023-04-25T01:09:04.459Z,15.22
2023-04-25T01:11:32.575Z,15.21
2023-04-25T01:14:00.420Z,15.25
2023-04-25T01:16:29.614Z,15.30
2023-04-25T01:18:57.683Z,15.32
2023-04-25T01:21:27.373Z,15.34
2023-04-25T01:23:55.571Z,15.38
2023-04-25T01:26:23.101Z,15.42
2023-04-25T01:28:50.746Z,15.49
2023-04-25T01:31:17.972Z,15.55
2023-04-25T01:33:45.854Z,15.58
2023-04-25T01:36:13.530Z,15.54
2023-04-25T01:38:41.355Z,15.57
2023-04-25T01:41:09.376Z,15.57
2023-04-25T01:43:37.210Z,15.62
2023-04-25T01:46:05.131Z,15.56
2023-04-25T01:48:32.664Z,15.56
2023-04-25T01:51:00.281Z,15.61
2023-04-25T01:53:28.008Z,15.58
2023-04-25T01:55:55.800Z,15.60
2023-04-25T01:58:23.861Z,15.56
2023-04-25T02:00:51.018Z,15.55
2023-04-25T02:03:19.568Z,15.58
2023-04-25T02:05:47.374Z,15.49
2023-04-25T02:08:15.007Z,15.48
2023-04-25T02:10:43.070Z,15.44
2023-04-25T02:13:10.853Z,15.40
2023-04-25T02:15:39.161Z,15.37
2023-04-25T02:18:07.614Z,15.36
2023-04-25T02:20:35.615Z,15.34
2023-04-25T02:23:03.412Z,15.33
2023-04-25T02:25:31.121Z,15.29
2023-04-25T02:27:59.167Z,15.23
2023-04-25T02:30:27.089Z,15.20
2023-04-25T02:32:54.971Z,15.20
2023-04-25T02:35:23.178Z,15.21
2023-04-25T02:37:51.228Z,15.24
2023-04-25T02:40:23.774Z,15.26
2023-04-25T02:42:52.078Z,15.25
2023-04-25T02:45:20.468Z,15.25
2023-04-25T02:47:48.625Z,15.25
2023-04-25T02:50:16.128Z,15.27
2023-04-25T02:52:44.051Z,15.26
2023-04-25T02:55:12.031Z,15.24
2023-04-25T02:57:40.227Z,15.30
2023-04-25T03:00:12.715Z,15.32
2023-04-25T03:02:40.602Z,15.29
2023-04-25T03:05:09.374Z,15.25
2023-04-25T03:07:36.998Z,15.18
2023-04-25T03:10:05.976Z,15.08
2023-04-25T03:12:34.124Z,15.05
2023-04-25T03:15:01.887Z,15.03
2023-04-25T03:17:29.925Z,14.99
2023-04-25T03:19:57.593Z,14.96
2023-04-25T03:22:25.834Z,14.91
2023-04-25T03:24:56.645Z,14.87
2023-04-25T03:27:23.835Z,14.79
2023-04-25T03:29:51.954Z,14.76
2023-04-25T03:32:19.785Z,14.74
2023-04-25T03:34:47.521Z,14.76
2023-04-25T03:37:15.504Z,14.83
2023-04-25T03:39:43.672Z,14.80
2023-04-25T03:42:11.680Z,14.78
2023-04-25T03:44:39.757Z,14.77
2023-04-25T03:47:07.819Z,14.80
2023-04-25T03:49:36.474Z,14.77
2023-04-25T03:52:05.239Z,14.73
2023-04-25T03:54:33.317Z,14.74
2023-04-25T03:57:00.946Z,14.74
2023-04-25T03:59:28.995Z,14.75
2023-04-25T04:01:58.034Z,14.76
2023-04-25T04:04:26.482Z,14.74
2023-04-25T04:06:54.153Z,14.80
2023-04-25T04:09:21.734Z,14.81
2023-04-25T04:11:49.267Z,14.84
2023-04-25T04:14:17.775Z,14.90
2023-04-25T04:16:45.922Z,14.94
2023-04-25T04:19:14.220Z,15.02
2023-04-25T04:21:42.229Z,15.05
2023-04-25T04:24:09.964Z,15.11
2023-04-25T04:26:38.234Z,15.13
2023-04-25T04:29:06.024Z,15.17
2023-04-25T04:31:33.897Z,15.19
2023-04-25T04:34:02.730Z,15.20
2023-04-25T04:36:30.734Z,15.19
2023-04-25T04:38:58.400Z,15.30
2023-04-25T04:41:26.196Z,15.31
2023-04-25T04:43:54.438Z,15.35
2023-04-25T04:46:22.950Z,15.38
2023-04-25T04:48:50.727Z,15.39
2023-04-25T04:51:18.340Z,15.46
2023-04-25T04:53:45.987Z,15.49
2023-04-25T04:56:13.981Z,15.49
2023-04-25T04:58:41.710Z,15.51
2023-04-25T05:01:09.955Z,15.51
2023-04-25T05:03:38.165Z,15.54
2023-04-25T05:06:10.913Z,15.57
2023-04-25T05:08:38.848Z,15.57
2023-04-25T05:11:07.133Z,15.57
2023-04-25T05:13:35.390Z,15.51
2023-04-25T05:16:03.131Z,15.46
2023-04-25T05:18:31.113Z,15.36
2023-04-25T05:20:59.249Z,15.26
2023-04-25T05:23:29.047Z,15.11
2023-04-25T05:25:56.815Z,14.17
2023-04-25T05:28:24.511Z,12.19
2023-04-25T05:30:52.248Z,11.59
2023-04-25T05:33:39.813Z,11.30
2023-04-25T05:36:09.940Z,11.12
2023-04-25T05:38:37.860Z,11.02
2023-04-25T05:41:05.692Z,10.70
2023-04-25T05:43:33.779Z,10.28
2023-04-25T05:46:01.766Z,10.14
2023-04-25T05:48:30.048Z,10.16
2023-04-25T05:50:57.835Z,10.20
2023-04-25T05:53:25.952Z,10.24
2023-04-25T05:55:54.177Z,10.34
2023-04-25T05:58:44.265Z,10.56
2023-04-25T06:01:12.333Z,10.75
2023-04-25T06:03:40.633Z,10.85
2023-04-25T06:06:08.954Z,10.99
2023-04-25T06:08:37.220Z,11.06
2023-04-25T06:11:05.399Z,11.11
2023-04-25T06:13:34.203Z,11.14
2023-04-25T06:16:02.080Z,11.39
2023-04-25T06:18:30.242Z,11.58
2023-04-25T06:20:57.709Z,11.74
2023-04-25T06:23:25.596Z,11.90
2023-04-25T06:25:53.063Z,11.94
2023-04-25T06:28:23.204Z,11.98
2023-04-25T06:30:50.684Z,12.06
2023-04-25T06:33:18.641Z,12.16
2023-04-25T06:35:46.658Z,12.31
2023-04-25T06:38:14.705Z,12.44
2023-04-25T06:40:45.744Z,12.55
2023-04-25T06:43:13.705Z,12.60
2023-04-25T06:45:41.120Z,12.71
2023-04-25T06:48:09.317Z,12.84
2023-04-25T06:50:36.841Z,12.91
2023-04-25T06:53:04.505Z,13.10
2023-04-25T06:55:32.114Z,13.28
2023-04-25T06:57:59.574Z,13.51
2023-04-25T07:00:28.025Z,13.73
2023-04-25T07:02:55.877Z,13.89
2023-04-25T07:05:24.561Z,13.97
2023-04-25T07:07:52.688Z,14.08
2023-04-25T07:10:22.573Z,14.31
2023-04-25T07:12:50.209Z,14.51
2023-04-25T07:15:18.249Z,14.63
2023-04-25T07:17:49.642Z,14.59
2023-04-25T07:20:17.780Z,14.59
2023-04-25T07:22:45.338Z,14.56
2023-04-25T07:25:12.901Z,14.38
2023-04-25T07:27:40.609Z,14.16
2023-04-25T07:30:10.504Z,14.08
2023-04-25T07:32:38.415Z,14.00
2023-04-25T07:35:08.892Z,13.97
2023-04-25T07:37:36.721Z,13.93
2023-04-25T07:40:25.345Z,13.86
2023-04-25T07:42:53.367Z,13.89
2023-04-25T07:45:21.046Z,13.92
2023-04-25T07:47:49.416Z,13.80
2023-04-25T07:50:17.462Z,13.78
2023-04-25T07:52:45.432Z,13.76
2023-04-25T07:55:13.024Z,13.82
2023-04-25T07:57:40.640Z,13.83
2023-04-25T08:00:11.619Z,13.84
2023-04-25T08:02:39.423Z,13.83
2023-04-25T08:05:09.365Z,13.91
2023-04-25T08:07:37.535Z,13.94
2023-04-25T08:10:07.831Z,13.93
2023-04-25T08:12:35.362Z,13.91
2023-04-25T08:15:02.865Z,13.93
2023-04-25T08:17:38.218Z,13.99
2023-04-25T08:20:06.956Z,13.98
2023-04-25T08:22:35.084Z,13.86
2023-04-25T08:25:03.096Z,13.90
2023-04-25T08:27:31.208Z,13.95
2023-04-25T08:30:00.026Z,14.16
2023-04-25T08:32:29.661Z,14.42
2023-04-25T08:34:58.602Z,14.74
2023-04-25T08:37:26.831Z,15.04
2023-04-25T08:39:54.406Z,15.22
2023-04-25T08:42:22.567Z,15.31
2023-04-25T08:44:51.063Z,15.36
2023-04-25T08:47:20.137Z,15.44
2023-04-25T08:49:48.115Z,15.48
2023-04-25T08:52:16.220Z,15.52
2023-04-25T08:54:46.842Z,15.56
2023-04-25T08:57:14.690Z,15.65
2023-04-25T08:59:44.158Z,15.71
2023-04-25T09:02:15.634Z,15.77
2023-04-25T09:04:44.383Z,15.86
2023-04-25T09:07:11.661Z,15.97
2023-04-25T09:09:39.508Z,16.10
2023-04-25T09:12:07.533Z,16.17
2023-04-25T09:14:35.543Z,16.38
2023-04-25T09:17:04.523Z,16.50
2023-04-25T09:19:42.184Z,16.46
2023-04-25T09:22:10.730Z,16.52
2023-04-25T09:24:44.528Z,16.62
2023-04-25T09:27:13.228Z,16.74
2023-04-25T09:29:41.647Z,16.79
2023-04-25T09:32:17.492Z,16.93
2023-04-25T09:34:51.214Z,17.03
2023-04-25T09:37:27.122Z,17.00
2023-04-25T09:40:03.948Z,17.15
2023-04-25T09:42:33.009Z,17.18
2023-04-25T09:45:03.269Z,17.25
2023-04-25T09:47:31.336Z,17.31
2023-04-25T09:50:00.158Z,17.43
2023-04-25T09:52:28.180Z,17.54
2023-04-25T09:54:55.743Z,17.48
2023-04-25T09:57:24.758Z,17.58
2023-04-25T09:59:55.873Z,17.65
2023-04-25T10:02:24.887Z,17.69
2023-04-25T10:04:55.661Z,17.83
2023-04-25T10:07:27.865Z,17.93
2023-04-25T10:10:19.890Z,18.05
2023-04-25T10:12:47.462Z,18.29
2023-04-25T10:15:14.974Z,18.45
2023-04-25T10:17:42.711Z,18.74
2023-04-25T10:20:12.081Z,18.90
2023-04-25T10:23:08.519Z,19.23
2023-04-25T10:25:36.494Z,19.43
2023-04-25T10:28:06.076Z,19.52
2023-04-25T10:30:34.043Z,19.45
2023-04-25T10:33:01.066Z,19.55
2023-04-25T10:35:32.059Z,19.68
2023-04-25T10:38:07.453Z,19.62
2023-04-25T10:40:34.496Z,19.67
2023-04-25T10:43:32.850Z,19.75
2023-04-25T10:46:03.511Z,19.96
2023-04-25T10:48:52.365Z,19.91
2023-04-25T10:54:19.034Z,19.47
2023-04-25T10:56:47.516Z,19.26
2023-04-25T10:59:15.405Z,19.11
2023-04-25T11:02:05.886Z,19.12
2023-04-25T11:04:37.301Z,19.07
2023-04-25T11:07:07.983Z,18.88
2023-04-25T11:09:37.046Z,18.67
2023-04-25T11:12:06.177Z,18.73
2023-04-25T11:14:34.509Z,18.94
2023-04-25T11:17:03.735Z,19.16
2023-04-25T11:19:31.689Z,19.44
2023-04-25T11:21:59.796Z,19.78
2023-04-25T11:24:50.317Z,19.97
2023-04-25T11:27:18.014Z,20.04
2023-04-25T11:29:45.901Z,20.00
2023-04-25T11:34:56.880Z,19.74
2023-04-25T11:37:24.608Z,19.91
2023-04-25T11:39:52.172Z,20.01
2023-04-25T11:42:21.005Z,20.25
2023-04-25T11:44:49.391Z,20.70
2023-04-25T11:47:17.633Z,20.68
2023-04-25T11:49:46.161Z,20.81
2023-04-25T11:52:14.145Z,21.51
2023-04-25T11:54:42.259Z,22.17
2023-04-25T11:57:09.928Z,22.78
2023-04-25T11:59:37.657Z,22.81
2023-04-25T12:02:08.530Z,22.91
2023-04-25T12:04:37.069Z,23.80
2023-04-25T12:07:05.236Z,24.45
2023-04-25T12:09:33.741Z,24.93
2023-04-25T12:12:03.974Z,24.58
2023-04-25T12:14:33.500Z,24.29
2023-04-25T12:17:01.806Z,24.49
2023-04-25T12:19:34.299Z,24.79
2023-04-25T12:22:04.186Z,24.36
2023-04-25T12:24:38.675Z,23.58
2023-04-25T12:27:07.498Z,23.08
2023-04-25T12:29:48.847Z,22.72
2023-04-25T12:32:18.187Z,22.23
2023-04-25T12:34:46.594Z,22.02
2023-04-25T12:37:14.305Z,21.73
2023-04-25T12:39:42.176Z,21.57
2023-04-25T12:42:12.879Z,21.36
2023-04-25T12:44:41.710Z,21.04
2023-04-25T12:47:08.917Z,20.80
2023-04-25T12:49:37.141Z,20.50
2023-04-25T12:52:05.786Z,20.24
2023-04-25T12:54:33.561Z,19.93
2023-04-25T12:57:04.033Z,19.76
2023-04-25T12:59:31.895Z,19.49
2023-04-25T13:01:59.728Z,19.18
2023-04-25T13:04:27.724Z,19.02
2023-04-25T13:07:01.096Z,18.84
2023-04-25T13:09:29.046Z,18.71
2023-04-25T13:11:59.356Z,18.65
2023-04-25T13:14:27.312Z,18.56
2023-04-25T13:16:55.691Z,18.38
2023-04-25T13:19:23.900Z,18.35
2023-04-25T13:21:51.911Z,18.25
2023-04-25T13:24:19.720Z,18.14
2023-04-25T13:26:47.665Z,18.05
2023-04-25T13:29:15.770Z,17.95
2023-04-25T13:31:43.634Z,17.85
2023-04-25T13:34:13.600Z,17.71
2023-04-25T13:36:41.321Z,17.53
2023-04-25T13:39:09.795Z,17.36
2023-04-25T13:41:40.277Z,17.20
2023-04-25T13:44:08.784Z,17.07
2023-04-25T13:46:46.331Z,16.89
2023-04-25T13:49:15.057Z,16.72
2023-04-25T13:51:43.618Z,16.56
2023-04-25T13:54:12.766Z,16.42
2023-04-25T13:56:43.978Z,16.30
2023-04-25T13:59:31.759Z,16.19
2023-04-25T14:02:02.968Z,16.15
2023-04-25T14:04:32.396Z,16.04
2023-04-25T14:07:10.180Z,16.02
2023-04-25T14:09:41.016Z,15.99
2023-04-25T14:12:16.235Z,16.02
2023-04-25T14:15:00.561Z,15.99
2023-04-25T14:17:39.729Z,15.97
2023-04-25T14:20:15.083Z,15.98
2023-04-25T14:22:46.933Z,16.00
2023-04-25T14:25:22.186Z,15.90
2023-04-25T14:27:51.229Z,15.86
2023-04-25T14:30:20.900Z,15.75
2023-04-25T14:32:49.670Z,15.65
2023-04-25T14:35:17.582Z,15.49
2023-04-25T14:37:45.535Z,15.43
2023-04-25T14:40:14.413Z,15.36
2023-04-25T14:42:43.514Z,15.32
2023-04-25T14:45:12.578Z,15.33
2023-04-25T14:47:40.428Z,15.33
2023-04-25T14:50:10.953Z,15.28
2023-04-25T14:52:40.783Z,15.27
2023-04-25T14:55:10.170Z,15.28
2023-04-25T14:57:37.788Z,15.32
2023-04-25T15:00:10.901Z,15.49
2023-04-25T15:02:38.606Z,15.52
2023-04-25T15:05:17.295Z,15.53
2023-04-25T15:07:49.042Z,15.61
2023-04-25T15:10:18.363Z,15.67
2023-04-25T15:12:47.682Z,15.51
2023-04-25T15:15:22.621Z,15.84
2023-04-25T15:17:59.321Z,16.54
2023-04-25T15:20:37.120Z,16.96
2023-04-25T15:23:06.233Z,18.17
2023-04-25T15:25:34.403Z,18.53
2023-04-25T15:28:02.432Z,18.85
2023-04-25T15:30:30.858Z,19.22
2023-04-25T15:32:58.569Z,19.78
2023-04-25T15:35:26.545Z,19.91
2023-04-25T15:37:54.556Z,19.77
2023-04-25T15:40:22.349Z,19.55
2023-04-25T15:42:51.903Z,19.24
2023-04-25T15:45:20.510Z,19.00
2023-04-25T15:47:48.300Z,19.02
2023-04-25T15:50:16.304Z,19.16
2023-04-25T15:52:43.948Z,19.28
2023-04-25T15:55:11.748Z,19.39
2023-04-25T15:57:41.516Z,19.52
2023-04-25T16:00:31.568Z,19.42
2023-04-25T16:02:59.759Z,18.98
2023-04-25T16:05:28.792Z,18.83
2023-04-25T16:07:56.466Z,18.67
2023-04-25T16:10:27.811Z,19.34
2023-04-25T16:12:55.675Z,20.30
2023-04-25T16:15:23.982Z,21.27
2023-04-25T16:17:51.767Z,22.24
2023-04-25T16:20:19.508Z,23.23
2023-04-25T16:22:51.115Z,23.97
2023-04-25T16:25:18.852Z,24.70
2023-04-25T16:27:46.873Z,25.20
2023-04-25T16:30:15.338Z,25.29
2023-04-25T16:32:45.294Z,24.90
2023-04-25T16:35:13.265Z,24.21
2023-04-25T16:37:40.869Z,23.43
2023-04-25T16:40:16.438Z,22.39
2023-04-25T16:42:44.013Z,21.42
2023-04-25T16:45:14.167Z,20.76
2023-04-25T16:48:05.873Z,20.06
2023-04-25T16:50:43.859Z,19.46
2023-04-25T16:53:24.587Z,19.14
2023-04-25T16:56:01.364Z,18.80
2023-04-25T16:58:45.694Z,18.58
2023-04-25T17:01:22.036Z,18.44
2023-04-25T17:03:53.824Z,18.24
2023-04-25T17:06:33.483Z,18.56
2023-04-25T17:09:05.405Z,18.63
2023-04-25T17:11:38.602Z,18.39
2023-04-25T17:14:11.252Z,18.23
2023-04-25T17:16:58.696Z,18.09
2023-04-25T17:23:03.956Z,17.68
2023-04-25T17:25:59.154Z,17.71
2023-04-25T17:28:31.431Z,17.66
2023-04-25T17:44:15.860Z,17.35
2023-04-25T17:46:44.010Z,17.18
2023-04-25T17:49:11.689Z,16.99
2023-04-25T17:51:39.353Z,16.83
2023-04-25T17:54:08.715Z,16.77
2023-04-25T17:56:38.407Z,16.69
2023-04-25T17:59:06.127Z,16.55
2023-04-25T18:01:34.234Z,16.38
2023-04-25T18:04:04.193Z,16.24
2023-04-25T18:06:33.094Z,16.11
2023-04-25T18:09:02.295Z,16.09
2023-04-25T18:11:30.138Z,16.05
2023-04-25T18:13:58.031Z,15.96
2023-04-25T18:16:25.863Z,15.93
2023-04-25T18:18:54.195Z,15.87
2023-04-25T18:21:22.392Z,15.74
2023-04-25T18:23:49.916Z,15.59
2023-04-25T18:26:18.176Z,15.49
2023-04-25T18:28:46.647Z,15.43
2023-04-25T18:31:16.703Z,15.36
2023-04-25T18:33:44.738Z,15.28
2023-04-25T18:36:12.744Z,15.20
2023-04-25T18:38:40.625Z,15.12
2023-04-25T18:41:33.715Z,15.02
2023-04-25T18:43:58.998Z,14.85
2023-04-25T18:46:27.603Z,14.80
2023-04-25T18:48:56.225Z,14.64
2023-04-25T18:51:24.025Z,14.64
2023-04-25T18:53:52.528Z,14.60
2023-04-25T18:56:22.727Z,14.59
2023-04-25T18:58:53.686Z,14.60
2023-04-25T19:01:25.491Z,14.54
2023-04-25T19:03:56.900Z,14.48
2023-04-25T19:06:50.026Z,14.37
2023-04-25T19:09:17.668Z,14.25
2023-04-25T19:11:45.385Z,14.19
2023-04-25T19:14:14.354Z,14.13
2023-04-25T19:16:43.907Z,14.07
2023-04-25T19:19:11.610Z,14.08
2023-04-25T19:21:39.644Z,14.10
2023-04-25T19:24:08.458Z,14.09
2023-04-25T19:26:35.970Z,13.95
2023-04-25T19:29:30.247Z,13.90
2023-04-25T19:31:59.627Z,13.85
2023-04-25T19:34:27.449Z,13.79
2023-04-25T19:36:54.730Z,13.79
2023-04-25T19:39:22.903Z,13.73
2023-04-25T19:41:50.565Z,13.61
2023-04-25T19:44:18.278Z,13.50
2023-04-25T19:46:46.865Z,13.44
2023-04-25T19:49:15.060Z,13.30
2023-04-25T19:51:43.381Z,13.20
2023-04-25T19:54:11.213Z,13.20
2023-04-25T19:56:39.387Z,13.23
2023-04-25T19:59:07.604Z,13.28
2023-04-25T20:01:35.124Z,13.25
2023-04-25T20:04:03.065Z,13.26
2023-04-25T20:06:30.815Z,13.37
2023-04-25T20:08:59.303Z,13.29
2023-04-25T20:11:29.212Z,13.26
2023-04-25T20:13:56.710Z,13.32
2023-04-25T20:16:24.410Z,13.27
2023-04-25T20:18:53.708Z,13.24
2023-04-25T20:21:22.991Z,13.22
2023-04-25T20:23:50.571Z,13.26
2023-04-25T20:26:18.602Z,13.24
2023-04-25T20:28:46.353Z,13.16
2023-04-25T20:31:13.613Z,13.05
2023-04-25T20:33:43.721Z,13.01
2023-04-25T20:36:11.189Z,13.11
2023-04-25T20:38:39.460Z,13.04
2023-04-25T20:41:07.190Z,12.97
2023-04-25T20:43:37.389Z,12.99
2023-04-25T20:46:05.744Z,12.93
2023-04-25T20:48:33.873Z,12.98
2023-04-25T20:51:01.463Z,12.96
2023-04-25T20:53:29.366Z,13.02
2023-04-25T20:55:57.641Z,13.02
2023-04-25T20:58:26.307Z,12.97
2023-04-25T21:00:56.422Z,12.96
2023-04-25T21:03:26.159Z,12.94
2023-04-25T21:05:54.113Z,12.93
2023-04-25T21:08:21.836Z,12.88
2023-04-25T21:10:49.346Z,12.92
2023-04-25T21:13:17.539Z,12.87
2023-04-25T21:15:45.389Z,12.79
2023-04-25T21:18:13.049Z,12.79
2023-04-25T21:20:40.130Z,12.70
2023-04-25T21:23:07.643Z,12.70
2023-04-25T21:25:35.304Z,12.70
2023-04-25T21:28:02.924Z,12.70
2023-04-25T21:30:31.594Z,12.72
2023-04-25T21:32:59.494Z,12.73
2023-04-25T21:35:26.313Z,12.75
2023-04-25T21:37:54.419Z,12.74
2023-04-25T21:40:21.277Z,12.70
2023-04-25T21:42:51.453Z,12.70
2023-04-25T21:45:20.034Z,12.65
2023-04-25T21:47:51.058Z,12.55
2023-04-25T21:50:19.666Z,12.57
2023-04-25T21:52:47.556Z,12.66
2023-04-25T21:55:16.500Z,12.62
2023-04-25T21:57:44.338Z,12.65
2023-04-25T22:00:21.126Z,12.62
2023-04-25T22:02:49.269Z,12.57
2023-04-25T22:05:17.727Z,12.51
2023-04-25T22:07:45.332Z,12.49
2023-04-25T22:10:13.228Z,12.42
2023-04-25T22:12:40.924Z,12.37
2023-04-25T22:15:11.840Z,12.37
2023-04-25T22:17:40.425Z,12.31
2023-04-25T22:20:14.384Z,12.33
2023-04-25T22:22:42.763Z,12.22
2023-04-25T22:25:12.020Z,12.30
2023-04-25T22:27:43.843Z,12.35
2023-04-25T22:30:13.300Z,12.39
2023-04-25T22:32:41.136Z,12.35
2023-04-25T22:35:09.805Z,12.37
2023-04-25T22:37:37.589Z,12.34
2023-04-25T22:40:07.253Z,12.35
2023-04-25T22:42:39.880Z,12.42
2023-04-25T22:45:10.494Z,12.37
2023-04-25T22:47:38.479Z,12.44
2023-04-25T22:50:12.633Z,12.47
2023-04-25T22:52:40.629Z,12.51
2023-04-25T22:55:10.250Z,12.53
2023-04-25T22:57:38.809Z,12.55
2023-04-25T23:00:16.186Z,12.46
2023-04-25T23:02:46.307Z,12.44
2023-04-25T23:05:15.523Z,12.29
2023-04-25T23:07:43.282Z,12.24
2023-04-25T23:10:12.186Z,12.14
2023-04-25T23:12:40.346Z,12.12
2023-04-25T23:15:10.672Z,12.01
2023-04-25T23:17:38.443Z,11.96
2023-04-25T23:20:11.288Z,11.91
2023-04-25T23:22:39.082Z,11.93
2023-04-25T23:25:10.547Z,11.84
2023-04-25T23:27:38.179Z,11.73
2023-04-25T23:30:09.287Z,11.73
2023-04-25T23:32:37.070Z,11.72
2023-04-25T23:35:05.801Z,11.75
2023-04-25T23:37:37.305Z,11.78
2023-04-25T23:40:12.431Z,11.80
2023-04-25T23:42:41.173Z,11.76
2023-04-25T23:45:08.370Z,11.77
2023-04-25T23:47:36.752Z,11.77
2023-04-25T23:50:04.938Z,11.84
2023-04-25T23:52:33.017Z,11.74
2023-04-25T23:55:01.117Z,11.76
2023-04-25T23:57:29.147Z,11.75
2023-04-25T23:59:57.051Z,11.66
